Airports United Kingdom Inverness Airport

Inverness Airport (EGPE / INV)

Facts about Inverness Airport

Name Inverness Airport
City Inverness
Country United Kingdom
ICAO code EGPE
IATA code INV
Elevation 9.4488 meters (31 feet)

Weather

METAR

Metar data retrieved Friday, 19 July 2024 at 23:55 UTC (9 minutes ago)

EGPE 192320Z AUTO 23010KT 9999 OVC033/// 17/15 Q1007

Live traffic

Navigraph Charts (account required)